sensor_id;sensor_type;location;lat;lon;timestamp;P1;durP1;ratioP1;P2;durP2;ratioP2
13335;SDS011;6737;51.480;11.962;2023-05-10T00:01:07;4.73;;;3.40;;
13335;SDS011;6737;51.480;11.962;2023-05-10T00:03:33;5.00;;;3.20;;
13335;SDS011;6737;51.480;11.962;2023-05-10T00:05:59;3.57;;;2.93;;
13335;SDS011;6737;51.480;11.962;2023-05-10T00:08:24;3.70;;;3.20;;
13335;SDS011;6737;51.480;11.962;2023-05-10T00:10:50;5.03;;;3.13;;
13335;SDS011;6737;51.480;11.962;2023-05-10T00:13:16;5.47;;;3.70;;
13335;SDS011;6737;51.480;11.962;2023-05-10T00:15:42;5.80;;;3.10;;
13335;SDS011;6737;51.480;11.962;2023-05-10T00:18:08;5.10;;;3.20;;
13335;SDS011;6737;51.480;11.962;2023-05-10T00:20:34;5.60;;;3.30;;
13335;SDS011;6737;51.480;11.962;2023-05-10T00:22:59;5.23;;;3.40;;
13335;SDS011;6737;51.480;11.962;2023-05-10T00:25:25;4.90;;;3.37;;
13335;SDS011;6737;51.480;11.962;2023-05-10T00:27:51;6.13;;;3.43;;
13335;SDS011;6737;51.480;11.962;2023-05-10T00:30:17;6.60;;;3.40;;
13335;SDS011;6737;51.480;11.962;2023-05-10T00:32:44;7.93;;;3.70;;
13335;SDS011;6737;51.480;11.962;2023-05-10T00:35:09;6.40;;;3.70;;
13335;SDS011;6737;51.480;11.962;2023-05-10T00:37:36;4.97;;;3.47;;
13335;SDS011;6737;51.480;11.962;2023-05-10T00:40:01;5.33;;;3.50;;
13335;SDS011;6737;51.480;11.962;2023-05-10T00:42:27;4.20;;;3.40;;
13335;SDS011;6737;51.480;11.962;2023-05-10T00:44:53;5.67;;;3.70;;
13335;SDS011;6737;51.480;11.962;2023-05-10T00:47:19;5.27;;;3.50;;
13335;SDS011;6737;51.480;11.962;2023-05-10T00:49:45;4.50;;;3.63;;
13335;SDS011;6737;51.480;11.962;2023-05-10T00:52:11;6.43;;;3.70;;
13335;SDS011;6737;51.480;11.962;2023-05-10T00:54:37;4.17;;;3.17;;
13335;SDS011;6737;51.480;11.962;2023-05-10T00:57:02;5.90;;;3.70;;
13335;SDS011;6737;51.480;11.962;2023-05-10T00:59:28;4.63;;;3.53;;
13335;SDS011;6737;51.480;11.962;2023-05-10T01:01:54;3.63;;;3.30;;
13335;SDS011;6737;51.480;11.962;2023-05-10T01:04:20;5.60;;;3.60;;
13335;SDS011;6737;51.480;11.962;2023-05-10T01:06:50;4.13;;;3.60;;
13335;SDS011;6737;51.480;11.962;2023-05-10T01:09:18;4.83;;;3.70;;
13335;SDS011;6737;51.480;11.962;2023-05-10T01:11:45;5.60;;;3.70;;
13335;SDS011;6737;51.480;11.962;2023-05-10T01:14:12;5.60;;;3.77;;
13335;SDS011;6737;51.480;11.962;2023-05-10T01:16:40;5.13;;;3.60;;
13335;SDS011;6737;51.480;11.962;2023-05-10T01:19:11;6.13;;;3.77;;
13335;SDS011;6737;51.480;11.962;2023-05-10T01:21:52;4.57;;;3.50;;
13335;SDS011;6737;51.480;11.962;2023-05-10T01:24:46;6.00;;;3.53;;
13335;SDS011;6737;51.480;11.962;2023-05-10T01:36:06;4.87;;;3.60;;
13335;SDS011;6737;51.480;11.962;2023-05-10T01:38:42;5.83;;;3.40;;
13335;SDS011;6737;51.480;11.962;2023-05-10T01:44:40;5.47;;;3.93;;
13335;SDS011;6737;51.480;11.962;2023-05-10T01:47:12;5.20;;;3.93;;
13335;SDS011;6737;51.480;11.962;2023-05-10T01:49:50;4.70;;;3.70;;
13335;SDS011;6737;51.480;11.962;2023-05-10T01:52:19;5.43;;;3.90;;
13335;SDS011;6737;51.480;11.962;2023-05-10T01:54:55;5.10;;;3.97;;
13335;SDS011;6737;51.480;11.962;2023-05-10T01:57:32;7.50;;;4.13;;
13335;SDS011;6737;51.480;11.962;2023-05-10T02:00:01;6.80;;;3.87;;
13335;SDS011;6737;51.480;11.962;2023-05-10T02:02:33;5.33;;;3.87;;
13335;SDS011;6737;51.480;11.962;2023-05-10T02:05:07;3.97;;;3.50;;
13335;SDS011;6737;51.480;11.962;2023-05-10T02:07:37;4.03;;;3.63;;
13335;SDS011;6737;51.480;11.962;2023-05-10T02:10:04;5.33;;;3.47;;
13335;SDS011;6737;51.480;11.962;2023-05-10T02:12:36;5.87;;;3.70;;
13335;SDS011;6737;51.480;11.962;2023-05-10T02:15:04;4.37;;;3.50;;
13335;SDS011;6737;51.480;11.962;2023-05-10T02:17:32;6.47;;;3.90;;
13335;SDS011;6737;51.480;11.962;2023-05-10T02:20:00;4.03;;;3.40;;
13335;SDS011;6737;51.480;11.962;2023-05-10T02:22:27;5.63;;;3.80;;
13335;SDS011;6737;51.480;11.962;2023-05-10T02:24:54;4.50;;;3.90;;
13335;SDS011;6737;51.480;11.962;2023-05-10T02:27:22;6.13;;;3.57;;
13335;SDS011;6737;51.480;11.962;2023-05-10T02:29:51;6.93;;;3.70;;
13335;SDS011;6737;51.480;11.962;2023-05-10T02:32:17;4.33;;;3.57;;
13335;SDS011;6737;51.480;11.962;2023-05-10T02:34:44;4.07;;;3.53;;
13335;SDS011;6737;51.480;11.962;2023-05-10T02:37:18;5.30;;;3.50;;
13335;SDS011;6737;51.480;11.962;2023-05-10T02:39:49;4.50;;;3.70;;
13335;SDS011;6737;51.480;11.962;2023-05-10T02:42:16;4.67;;;3.63;;
13335;SDS011;6737;51.480;11.962;2023-05-10T02:44:45;4.70;;;3.80;;
13335;SDS011;6737;51.480;11.962;2023-05-10T02:47:14;5.77;;;3.77;;
13335;SDS011;6737;51.480;11.962;2023-05-10T02:49:40;5.70;;;3.80;;
13335;SDS011;6737;51.480;11.962;2023-05-10T02:52:06;4.20;;;3.80;;
13335;SDS011;6737;51.480;11.962;2023-05-10T02:54:36;5.23;;;3.83;;
13335;SDS011;6737;51.480;11.962;2023-05-10T02:57:15;4.57;;;3.80;;
13335;SDS011;6737;51.480;11.962;2023-05-10T02:59:44;6.17;;;3.60;;
13335;SDS011;6737;51.480;11.962;2023-05-10T03:02:14;4.90;;;3.73;;
13335;SDS011;6737;51.480;11.962;2023-05-10T03:04:40;6.30;;;3.80;;
13335;SDS011;6737;51.480;11.962;2023-05-10T03:07:05;6.67;;;3.97;;
13335;SDS011;6737;51.480;11.962;2023-05-10T03:09:32;6.03;;;3.90;;
13335;SDS011;6737;51.480;11.962;2023-05-10T03:15:00;6.80;;;4.13;;
13335;SDS011;6737;51.480;11.962;2023-05-10T03:17:47;4.67;;;3.90;;
13335;SDS011;6737;51.480;11.962;2023-05-10T03:20:31;6.27;;;4.20;;
13335;SDS011;6737;51.480;11.962;2023-05-10T03:23:46;6.30;;;3.73;;
13335;SDS011;6737;51.480;11.962;2023-05-10T03:25:59;6.37;;;4.03;;
13335;SDS011;6737;51.480;11.962;2023-05-10T03:28:26;6.03;;;4.13;;
13335;SDS011;6737;51.480;11.962;2023-05-10T03:30:53;6.33;;;4.47;;
13335;SDS011;6737;51.480;11.962;2023-05-10T03:33:20;6.07;;;4.30;;
13335;SDS011;6737;51.480;11.962;2023-05-10T03:35:46;4.77;;;3.80;;
13335;SDS011;6737;51.480;11.962;2023-05-10T03:38:12;6.77;;;3.67;;
13335;SDS011;6737;51.480;11.962;2023-05-10T03:40:38;6.13;;;3.80;;
13335;SDS011;6737;51.480;11.962;2023-05-10T03:43:04;8.53;;;4.20;;
13335;SDS011;6737;51.480;11.962;2023-05-10T03:45:30;6.67;;;3.93;;
13335;SDS011;6737;51.480;11.962;2023-05-10T03:47:56;6.07;;;3.93;;
13335;SDS011;6737;51.480;11.962;2023-05-10T03:50:23;5.07;;;3.77;;
13335;SDS011;6737;51.480;11.962;2023-05-10T03:52:49;4.90;;;3.53;;
13335;SDS011;6737;51.480;11.962;2023-05-10T03:55:15;7.60;;;3.73;;
13335;SDS011;6737;51.480;11.962;2023-05-10T03:57:41;7.30;;;3.70;;
13335;SDS011;6737;51.480;11.962;2023-05-10T04:00:07;5.07;;;3.77;;
13335;SDS011;6737;51.480;11.962;2023-05-10T04:02:34;7.20;;;3.73;;
13335;SDS011;6737;51.480;11.962;2023-05-10T04:05:00;6.07;;;4.10;;
13335;SDS011;6737;51.480;11.962;2023-05-10T04:07:26;7.97;;;4.23;;
13335;SDS011;6737;51.480;11.962;2023-05-10T04:09:52;7.23;;;3.90;;
13335;SDS011;6737;51.480;11.962;2023-05-10T04:12:17;5.20;;;3.97;;
13335;SDS011;6737;51.480;11.962;2023-05-10T04:14:43;6.73;;;3.97;;
13335;SDS011;6737;51.480;11.962;2023-05-10T04:17:09;5.43;;;3.80;;
13335;SDS011;6737;51.480;11.962;2023-05-10T04:19:35;6.33;;;3.60;;
13335;SDS011;6737;51.480;11.962;2023-05-10T04:22:02;6.70;;;4.13;;
13335;SDS011;6737;51.480;11.962;2023-05-10T04:24:28;5.07;;;4.47;;
13335;SDS011;6737;51.480;11.962;2023-05-10T04:26:54;7.27;;;3.70;;
13335;SDS011;6737;51.480;11.962;2023-05-10T04:29:20;8.60;;;4.00;;
13335;SDS011;6737;51.480;11.962;2023-05-10T04:31:46;5.23;;;4.00;;
13335;SDS011;6737;51.480;11.962;2023-05-10T04:34:12;5.23;;;4.10;;
13335;SDS011;6737;51.480;11.962;2023-05-10T04:36:37;4.77;;;4.20;;
13335;SDS011;6737;51.480;11.962;2023-05-10T04:39:03;4.43;;;3.90;;
13335;SDS011;6737;51.480;11.962;2023-05-10T04:41:29;6.60;;;4.43;;
13335;SDS011;6737;51.480;11.962;2023-05-10T04:43:55;5.37;;;4.20;;
13335;SDS011;6737;51.480;11.962;2023-05-10T04:46:21;5.60;;;4.00;;
13335;SDS011;6737;51.480;11.962;2023-05-10T04:48:47;8.17;;;4.07;;
13335;SDS011;6737;51.480;11.962;2023-05-10T04:51:13;6.73;;;3.90;;
13335;SDS011;6737;51.480;11.962;2023-05-10T04:53:39;6.23;;;3.93;;
13335;SDS011;6737;51.480;11.962;2023-05-10T04:56:04;7.23;;;3.70;;
13335;SDS011;6737;51.480;11.962;2023-05-10T04:58:31;5.70;;;3.80;;
13335;SDS011;6737;51.480;11.962;2023-05-10T05:00:56;7.87;;;4.00;;
13335;SDS011;6737;51.480;11.962;2023-05-10T05:03:22;6.20;;;3.80;;
13335;SDS011;6737;51.480;11.962;2023-05-10T05:05:48;6.70;;;4.00;;
13335;SDS011;6737;51.480;11.962;2023-05-10T05:08:14;7.73;;;4.10;;
13335;SDS011;6737;51.480;11.962;2023-05-10T05:10:39;5.83;;;3.80;;
13335;SDS011;6737;51.480;11.962;2023-05-10T05:13:05;4.47;;;3.63;;
13335;SDS011;6737;51.480;11.962;2023-05-10T05:15:31;6.67;;;3.90;;
13335;SDS011;6737;51.480;11.962;2023-05-10T05:17:57;9.00;;;3.87;;
13335;SDS011;6737;51.480;11.962;2023-05-10T05:20:23;7.60;;;3.83;;
13335;SDS011;6737;51.480;11.962;2023-05-10T05:22:49;9.10;;;3.97;;
13335;SDS011;6737;51.480;11.962;2023-05-10T05:25:15;9.90;;;3.93;;
13335;SDS011;6737;51.480;11.962;2023-05-10T05:27:41;5.27;;;4.10;;
13335;SDS011;6737;51.480;11.962;2023-05-10T05:30:07;6.90;;;4.27;;
13335;SDS011;6737;51.480;11.962;2023-05-10T05:32:33;6.97;;;3.90;;
13335;SDS011;6737;51.480;11.962;2023-05-10T05:34:59;4.90;;;3.60;;
13335;SDS011;6737;51.480;11.962;2023-05-10T05:37:25;7.10;;;3.70;;
13335;SDS011;6737;51.480;11.962;2023-05-10T05:39:51;10.50;;;3.83;;
13335;SDS011;6737;51.480;11.962;2023-05-10T05:42:19;9.40;;;4.30;;
13335;SDS011;6737;51.480;11.962;2023-05-10T05:44:45;6.73;;;3.60;;
13335;SDS011;6737;51.480;11.962;2023-05-10T05:47:11;8.47;;;4.30;;
13335;SDS011;6737;51.480;11.962;2023-05-10T05:49:37;8.33;;;3.50;;
13335;SDS011;6737;51.480;11.962;2023-05-10T05:52:03;11.47;;;3.87;;
13335;SDS011;6737;51.480;11.962;2023-05-10T05:54:30;8.43;;;3.40;;
13335;SDS011;6737;51.480;11.962;2023-05-10T05:56:56;12.03;;;3.60;;
13335;SDS011;6737;51.480;11.962;2023-05-10T05:59:23;10.23;;;3.43;;
13335;SDS011;6737;51.480;11.962;2023-05-10T06:01:49;14.83;;;3.90;;
13335;SDS011;6737;51.480;11.962;2023-05-10T06:04:15;15.67;;;3.93;;
13335;SDS011;6737;51.480;11.962;2023-05-10T06:06:42;9.30;;;3.87;;
13335;SDS011;6737;51.480;11.962;2023-05-10T06:09:08;10.83;;;3.97;;
13335;SDS011;6737;51.480;11.962;2023-05-10T06:11:34;11.97;;;4.13;;
13335;SDS011;6737;51.480;11.962;2023-05-10T06:14:01;7.10;;;3.63;;
13335;SDS011;6737;51.480;11.962;2023-05-10T06:16:29;14.60;;;3.60;;
13335;SDS011;6737;51.480;11.962;2023-05-10T06:18:56;9.67;;;3.80;;
13335;SDS011;6737;51.480;11.962;2023-05-10T06:21:21;9.17;;;3.90;;
13335;SDS011;6737;51.480;11.962;2023-05-10T06:23:47;5.70;;;3.30;;
13335;SDS011;6737;51.480;11.962;2023-05-10T06:26:13;9.27;;;3.70;;
13335;SDS011;6737;51.480;11.962;2023-05-10T06:28:39;5.97;;;3.63;;
13335;SDS011;6737;51.480;11.962;2023-05-10T06:31:05;12.77;;;3.83;;
13335;SDS011;6737;51.480;11.962;2023-05-10T06:33:32;6.50;;;3.40;;
13335;SDS011;6737;51.480;11.962;2023-05-10T06:35:59;7.97;;;3.37;;
13335;SDS011;6737;51.480;11.962;2023-05-10T06:38:25;6.73;;;3.30;;
13335;SDS011;6737;51.480;11.962;2023-05-10T06:40:51;12.03;;;4.63;;
13335;SDS011;6737;51.480;11.962;2023-05-10T06:43:16;4.67;;;3.40;;
13335;SDS011;6737;51.480;11.962;2023-05-10T06:45:42;6.03;;;3.53;;
13335;SDS011;6737;51.480;11.962;2023-05-10T06:48:08;4.90;;;3.07;;
13335;SDS011;6737;51.480;11.962;2023-05-10T06:50:34;5.53;;;3.40;;
13335;SDS011;6737;51.480;11.962;2023-05-10T06:53:00;4.53;;;3.63;;
13335;SDS011;6737;51.480;11.962;2023-05-10T06:55:27;6.30;;;3.60;;
13335;SDS011;6737;51.480;11.962;2023-05-10T06:57:53;7.73;;;3.63;;
13335;SDS011;6737;51.480;11.962;2023-05-10T07:00:19;5.13;;;3.37;;
13335;SDS011;6737;51.480;11.962;2023-05-10T07:02:45;4.83;;;3.40;;
13335;SDS011;6737;51.480;11.962;2023-05-10T07:05:12;4.10;;;3.60;;
13335;SDS011;6737;51.480;11.962;2023-05-10T07:07:39;5.87;;;3.43;;
13335;SDS011;6737;51.480;11.962;2023-05-10T07:10:05;6.07;;;3.63;;
13335;SDS011;6737;51.480;11.962;2023-05-10T07:12:32;8.40;;;3.97;;
13335;SDS011;6737;51.480;11.962;2023-05-10T07:14:58;7.57;;;3.63;;
13335;SDS011;6737;51.480;11.962;2023-05-10T07:17:24;8.50;;;3.60;;
13335;SDS011;6737;51.480;11.962;2023-05-10T07:19:50;5.97;;;3.50;;
13335;SDS011;6737;51.480;11.962;2023-05-10T07:22:16;8.33;;;3.77;;
13335;SDS011;6737;51.480;11.962;2023-05-10T07:24:42;8.20;;;3.50;;
13335;SDS011;6737;51.480;11.962;2023-05-10T07:27:08;7.43;;;3.63;;
13335;SDS011;6737;51.480;11.962;2023-05-10T07:29:35;5.03;;;3.57;;
13335;SDS011;6737;51.480;11.962;2023-05-10T07:32:01;5.33;;;3.60;;
13335;SDS011;6737;51.480;11.962;2023-05-10T07:34:27;4.13;;;3.63;;
13335;SDS011;6737;51.480;11.962;2023-05-10T07:36:55;4.37;;;3.70;;
13335;SDS011;6737;51.480;11.962;2023-05-10T07:39:23;5.73;;;3.50;;
13335;SDS011;6737;51.480;11.962;2023-05-10T07:41:48;4.60;;;3.33;;
13335;SDS011;6737;51.480;11.962;2023-05-10T07:44:14;6.77;;;3.60;;
13335;SDS011;6737;51.480;11.962;2023-05-10T07:46:43;9.57;;;4.10;;
13335;SDS011;6737;51.480;11.962;2023-05-10T07:49:09;6.90;;;3.67;;
13335;SDS011;6737;51.480;11.962;2023-05-10T07:51:35;4.77;;;3.87;;
13335;SDS011;6737;51.480;11.962;2023-05-10T07:54:00;5.10;;;3.70;;
13335;SDS011;6737;51.480;11.962;2023-05-10T07:56:28;10.33;;;4.27;;
13335;SDS011;6737;51.480;11.962;2023-05-10T07:58:57;7.77;;;4.50;;
13335;SDS011;6737;51.480;11.962;2023-05-10T08:01:29;5.43;;;4.50;;
13335;SDS011;6737;51.480;11.962;2023-05-10T08:03:56;8.20;;;4.13;;
13335;SDS011;6737;51.480;11.962;2023-05-10T08:06:22;5.87;;;4.13;;
13335;SDS011;6737;51.480;11.962;2023-05-10T08:08:48;6.07;;;4.63;;
13335;SDS011;6737;51.480;11.962;2023-05-10T08:11:16;7.67;;;4.30;;
13335;SDS011;6737;51.480;11.962;2023-05-10T08:13:42;5.40;;;4.10;;
13335;SDS011;6737;51.480;11.962;2023-05-10T08:16:10;7.97;;;5.13;;
13335;SDS011;6737;51.480;11.962;2023-05-10T08:18:36;8.40;;;4.70;;
13335;SDS011;6737;51.480;11.962;2023-05-10T08:21:04;7.37;;;5.27;;
13335;SDS011;6737;51.480;11.962;2023-05-10T08:23:30;7.13;;;5.47;;
13335;SDS011;6737;51.480;11.962;2023-05-10T08:25:56;5.80;;;4.90;;
13335;SDS011;6737;51.480;11.962;2023-05-10T08:28:22;6.87;;;5.20;;
13335;SDS011;6737;51.480;11.962;2023-05-10T08:30:49;6.97;;;5.47;;
13335;SDS011;6737;51.480;11.962;2023-05-10T08:33:17;7.23;;;5.40;;
13335;SDS011;6737;51.480;11.962;2023-05-10T08:35:43;7.77;;;5.57;;
13335;SDS011;6737;51.480;11.962;2023-05-10T08:38:09;9.77;;;5.60;;
13335;SDS011;6737;51.480;11.962;2023-05-10T08:40:36;9.37;;;5.20;;
13335;SDS011;6737;51.480;11.962;2023-05-10T08:43:08;13.63;;;6.13;;
13335;SDS011;6737;51.480;11.962;2023-05-10T08:45:37;10.13;;;5.90;;
13335;SDS011;6737;51.480;11.962;2023-05-10T08:48:08;10.50;;;6.23;;
13335;SDS011;6737;51.480;11.962;2023-05-10T08:50:36;8.17;;;6.23;;
13335;SDS011;6737;51.480;11.962;2023-05-10T08:53:04;8.30;;;6.07;;
13335;SDS011;6737;51.480;11.962;2023-05-10T08:55:32;9.93;;;6.10;;
13335;SDS011;6737;51.480;11.962;2023-05-10T08:57:59;9.77;;;5.87;;
13335;SDS011;6737;51.480;11.962;2023-05-10T09:00:25;7.50;;;6.03;;
13335;SDS011;6737;51.480;11.962;2023-05-10T09:02:52;6.20;;;5.60;;
13335;SDS011;6737;51.480;11.962;2023-05-10T09:05:19;7.03;;;5.93;;
13335;SDS011;6737;51.480;11.962;2023-05-10T09:07:45;8.43;;;6.40;;
13335;SDS011;6737;51.480;11.962;2023-05-10T09:10:11;8.03;;;6.03;;
13335;SDS011;6737;51.480;11.962;2023-05-10T09:12:38;10.13;;;6.50;;
13335;SDS011;6737;51.480;11.962;2023-05-10T09:15:05;10.10;;;6.63;;
13335;SDS011;6737;51.480;11.962;2023-05-10T09:17:32;9.90;;;6.37;;
13335;SDS011;6737;51.480;11.962;2023-05-10T09:19:59;7.95;;;7.15;;
13335;SDS011;6737;51.480;11.962;2023-05-10T09:22:27;7.90;;;6.40;;
13335;SDS011;6737;51.480;11.962;2023-05-10T09:27:35;9.17;;;6.53;;
13335;SDS011;6737;51.480;11.962;2023-05-10T09:30:02;7.57;;;6.35;;
13335;SDS011;6737;51.480;11.962;2023-05-10T09:32:38;11.63;;;6.20;;
13335;SDS011;6737;51.480;11.962;2023-05-10T09:35:09;10.47;;;5.93;;
13335;SDS011;6737;51.480;11.962;2023-05-10T09:37:40;9.97;;;6.30;;
13335;SDS011;6737;51.480;11.962;2023-05-10T09:40:08;10.07;;;6.73;;
13335;SDS011;6737;51.480;11.962;2023-05-10T09:42:38;7.63;;;6.53;;
13335;SDS011;6737;51.480;11.962;2023-05-10T09:45:04;10.57;;;7.07;;
13335;SDS011;6737;51.480;11.962;2023-05-10T09:47:32;7.60;;;6.70;;
13335;SDS011;6737;51.480;11.962;2023-05-10T09:50:03;9.30;;;7.75;;
13335;SDS011;6737;51.480;11.962;2023-05-10T09:52:31;8.77;;;7.88;;
13335;SDS011;6737;51.480;11.962;2023-05-10T09:55:17;8.13;;;7.32;;
13335;SDS011;6737;51.480;11.962;2023-05-10T09:58:04;7.95;;;7.15;;
13335;SDS011;6737;51.480;11.962;2023-05-10T10:00:35;9.35;;;7.70;;
13335;SDS011;6737;51.480;11.962;2023-05-10T10:03:03;8.50;;;7.60;;
13335;SDS011;6737;51.480;11.962;2023-05-10T10:05:33;8.35;;;7.45;;
13335;SDS011;6737;51.480;11.962;2023-05-10T10:08:00;8.80;;;7.90;;
13335;SDS011;6737;51.480;11.962;2023-05-10T10:10:30;8.10;;;6.68;;
13335;SDS011;6737;51.480;11.962;2023-05-10T10:12:57;7.25;;;6.13;;
13335;SDS011;6737;51.480;11.962;2023-05-10T10:15:24;7.27;;;6.17;;
13335;SDS011;6737;51.480;11.962;2023-05-10T10:17:51;7.70;;;6.35;;
13335;SDS011;6737;51.480;11.962;2023-05-10T10:20:19;7.57;;;5.50;;
13335;SDS011;6737;51.480;11.962;2023-05-10T10:22:47;7.15;;;5.85;;
13335;SDS011;6737;51.480;11.962;2023-05-10T10:25:16;6.55;;;5.90;;
13335;SDS011;6737;51.480;11.962;2023-05-10T10:30:25;6.18;;;5.57;;
13335;SDS011;6737;51.480;11.962;2023-05-10T10:35:45;6.78;;;6.07;;
13335;SDS011;6737;51.480;11.962;2023-05-10T10:38:14;8.93;;;7.80;;
13335;SDS011;6737;51.480;11.962;2023-05-10T10:40:41;7.35;;;6.65;;
13335;SDS011;6737;51.480;11.962;2023-05-10T10:43:26;6.53;;;5.47;;
13335;SDS011;6737;51.480;11.962;2023-05-10T10:46:11;5.35;;;4.85;;
13335;SDS011;6737;51.480;11.962;2023-05-10T10:48:38;5.00;;;4.03;;
13335;SDS011;6737;51.480;11.962;2023-05-10T10:51:04;3.03;;;2.70;;
13335;SDS011;6737;51.480;11.962;2023-05-10T10:53:30;4.20;;;2.80;;
13335;SDS011;6737;51.480;11.962;2023-05-10T10:56:12;2.58;;;2.38;;
13335;SDS011;6737;51.480;11.962;2023-05-10T10:58:40;2.70;;;2.50;;
13335;SDS011;6737;51.480;11.962;2023-05-10T11:01:16;2.78;;;2.33;;
13335;SDS011;6737;51.480;11.962;2023-05-10T11:06:31;2.20;;;2.00;;
13335;SDS011;6737;51.480;11.962;2023-05-10T11:08:58;3.00;;;2.22;;
13335;SDS011;6737;51.480;11.962;2023-05-10T11:11:24;2.47;;;2.25;;
13335;SDS011;6737;51.480;11.962;2023-05-10T11:13:50;2.40;;;2.20;;
13335;SDS011;6737;51.480;11.962;2023-05-10T11:16:17;2.60;;;2.30;;
13335;SDS011;6737;51.480;11.962;2023-05-10T11:19:03;2.43;;;2.10;;
13335;SDS011;6737;51.480;11.962;2023-05-10T11:21:33;3.00;;;2.40;;
13335;SDS011;6737;51.480;11.962;2023-05-10T11:24:13;2.50;;;2.30;;
13335;SDS011;6737;51.480;11.962;2023-05-10T11:26:49;2.60;;;2.40;;
13335;SDS011;6737;51.480;11.962;2023-05-10T11:29:17;2.60;;;2.40;;
13335;SDS011;6737;51.480;11.962;2023-05-10T11:31:46;2.35;;;2.10;;
13335;SDS011;6737;51.480;11.962;2023-05-10T11:34:23;2.50;;;2.30;;
13335;SDS011;6737;51.480;11.962;2023-05-10T11:36:53;2.30;;;2.10;;
13335;SDS011;6737;51.480;11.962;2023-05-10T11:39:20;2.50;;;2.30;;
13335;SDS011;6737;51.480;11.962;2023-05-10T11:41:47;2.50;;;2.30;;
13335;SDS011;6737;51.480;11.962;2023-05-10T11:44:14;2.50;;;2.30;;
13335;SDS011;6737;51.480;11.962;2023-05-10T11:46:40;2.47;;;2.20;;
13335;SDS011;6737;51.480;11.962;2023-05-10T11:49:06;2.30;;;2.10;;
13335;SDS011;6737;51.480;11.962;2023-05-10T11:51:33;2.90;;;2.30;;
13335;SDS011;6737;51.480;11.962;2023-05-10T11:54:08;2.42;;;2.22;;
13335;SDS011;6737;51.480;11.962;2023-05-10T11:56:36;2.92;;;2.00;;
13335;SDS011;6737;51.480;11.962;2023-05-10T11:59:03;2.25;;;1.90;;
13335;SDS011;6737;51.480;11.962;2023-05-10T12:01:29;2.30;;;1.90;;
13335;SDS011;6737;51.480;11.962;2023-05-10T12:03:56;2.00;;;1.60;;
13335;SDS011;6737;51.480;11.962;2023-05-10T12:06:28;1.73;;;1.63;;
13335;SDS011;6737;51.480;11.962;2023-05-10T12:08:56;2.20;;;2.00;;
13335;SDS011;6737;51.480;11.962;2023-05-10T12:11:27;2.30;;;2.10;;
13335;SDS011;6737;51.480;11.962;2023-05-10T12:13:54;2.33;;;2.08;;
13335;SDS011;6737;51.480;11.962;2023-05-10T12:16:25;2.60;;;2.30;;
13335;SDS011;6737;51.480;11.962;2023-05-10T12:18:53;2.72;;;2.20;;
13335;SDS011;6737;51.480;11.962;2023-05-10T12:21:21;2.70;;;2.50;;
13335;SDS011;6737;51.480;11.962;2023-05-10T12:23:50;3.20;;;2.55;;
13335;SDS011;6737;51.480;11.962;2023-05-10T12:26:23;3.28;;;2.60;;
13335;SDS011;6737;51.480;11.962;2023-05-10T12:28:52;3.13;;;2.72;;
13335;SDS011;6737;51.480;11.962;2023-05-10T12:31:19;5.40;;;2.90;;
13335;SDS011;6737;51.480;11.962;2023-05-10T12:33:45;6.35;;;3.00;;
13335;SDS011;6737;51.480;11.962;2023-05-10T12:36:13;7.05;;;3.60;;
13335;SDS011;6737;51.480;11.962;2023-05-10T12:38:41;8.10;;;4.07;;
13335;SDS011;6737;51.480;11.962;2023-05-10T12:41:26;3.53;;;3.20;;
13335;SDS011;6737;51.480;11.962;2023-05-10T12:43:52;5.78;;;3.40;;
13335;SDS011;6737;51.480;11.962;2023-05-10T12:46:17;5.40;;;3.40;;
13335;SDS011;6737;51.480;11.962;2023-05-10T12:48:44;3.45;;;3.00;;
13335;SDS011;6737;51.480;11.962;2023-05-10T12:51:12;2.40;;;2.20;;
13335;SDS011;6737;51.480;11.962;2023-05-10T12:53:40;2.78;;;2.30;;
13335;SDS011;6737;51.480;11.962;2023-05-10T12:56:06;4.35;;;2.60;;
13335;SDS011;6737;51.480;11.962;2023-05-10T12:58:32;4.53;;;3.10;;
13335;SDS011;6737;51.480;11.962;2023-05-10T13:00:59;3.78;;;2.85;;
13335;SDS011;6737;51.480;11.962;2023-05-10T13:03:25;3.10;;;2.80;;
13335;SDS011;6737;51.480;11.962;2023-05-10T13:05:51;3.17;;;2.88;;
13335;SDS011;6737;51.480;11.962;2023-05-10T13:08:16;4.30;;;2.90;;
13335;SDS011;6737;51.480;11.962;2023-05-10T13:10:43;3.00;;;2.70;;
13335;SDS011;6737;51.480;11.962;2023-05-10T13:13:08;3.67;;;2.95;;
13335;SDS011;6737;51.480;11.962;2023-05-10T13:15:34;2.78;;;2.42;;
13335;SDS011;6737;51.480;11.962;2023-05-10T13:18:00;3.63;;;2.70;;
13335;SDS011;6737;51.480;11.962;2023-05-10T13:20:26;2.70;;;2.50;;
13335;SDS011;6737;51.480;11.962;2023-05-10T13:22:53;3.50;;;3.08;;
13335;SDS011;6737;51.480;11.962;2023-05-10T13:25:19;5.40;;;4.38;;
13335;SDS011;6737;51.480;11.962;2023-05-10T13:27:44;6.30;;;5.25;;
13335;SDS011;6737;51.480;11.962;2023-05-10T13:30:10;6.10;;;5.50;;
13335;SDS011;6737;51.480;11.962;2023-05-10T13:32:36;6.13;;;5.53;;
13335;SDS011;6737;51.480;11.962;2023-05-10T13:35:03;5.13;;;4.63;;
13335;SDS011;6737;51.480;11.962;2023-05-10T13:37:30;6.65;;;5.15;;
13335;SDS011;6737;51.480;11.962;2023-05-10T13:39:56;7.32;;;6.18;;
13335;SDS011;6737;51.480;11.962;2023-05-10T13:42:22;7.68;;;6.88;;
13335;SDS011;6737;51.480;11.962;2023-05-10T13:44:49;8.98;;;7.15;;
13335;SDS011;6737;51.480;11.962;2023-05-10T13:47:15;7.90;;;7.10;;
13335;SDS011;6737;51.480;11.962;2023-05-10T13:49:41;6.70;;;6.10;;
13335;SDS011;6737;51.480;11.962;2023-05-10T13:52:07;7.00;;;6.30;;
13335;SDS011;6737;51.480;11.962;2023-05-10T13:54:35;6.55;;;5.85;;
13335;SDS011;6737;51.480;11.962;2023-05-10T13:57:03;5.72;;;5.00;;
13335;SDS011;6737;51.480;11.962;2023-05-10T13:59:29;6.07;;;5.30;;
13335;SDS011;6737;51.480;11.962;2023-05-10T14:01:59;5.30;;;4.80;;
13335;SDS011;6737;51.480;11.962;2023-05-10T14:04:27;4.70;;;4.20;;
13335;SDS011;6737;51.480;11.962;2023-05-10T14:06:54;4.75;;;4.35;;
13335;SDS011;6737;51.480;11.962;2023-05-10T14:09:19;5.23;;;4.73;;
13335;SDS011;6737;51.480;11.962;2023-05-10T14:11:46;5.18;;;4.68;;
13335;SDS011;6737;51.480;11.962;2023-05-10T14:14:11;5.00;;;4.35;;
13335;SDS011;6737;51.480;11.962;2023-05-10T14:16:41;4.72;;;4.22;;
13335;SDS011;6737;51.480;11.962;2023-05-10T14:19:09;5.77;;;4.33;;
13335;SDS011;6737;51.480;11.962;2023-05-10T14:21:35;4.57;;;4.18;;
13335;SDS011;6737;51.480;11.962;2023-05-10T14:24:01;5.00;;;4.50;;
13335;SDS011;6737;51.480;11.962;2023-05-10T14:26:27;4.80;;;4.40;;
13335;SDS011;6737;51.480;11.962;2023-05-10T14:28:53;4.05;;;3.65;;
13335;SDS011;6737;51.480;11.962;2023-05-10T14:31:18;4.30;;;3.90;;
13335;SDS011;6737;51.480;11.962;2023-05-10T14:33:48;4.15;;;3.75;;
13335;SDS011;6737;51.480;11.962;2023-05-10T14:36:14;4.40;;;4.00;;
13335;SDS011;6737;51.480;11.962;2023-05-10T14:38:41;4.60;;;4.20;;
13335;SDS011;6737;51.480;11.962;2023-05-10T14:41:06;4.50;;;4.10;;
13335;SDS011;6737;51.480;11.962;2023-05-10T14:43:32;4.78;;;4.38;;
13335;SDS011;6737;51.480;11.962;2023-05-10T14:45:58;5.40;;;4.88;;
13335;SDS011;6737;51.480;11.962;2023-05-10T14:48:24;5.50;;;4.95;;
13335;SDS011;6737;51.480;11.962;2023-05-10T14:50:50;6.30;;;5.70;;
13335;SDS011;6737;51.480;11.962;2023-05-10T14:53:17;6.43;;;5.77;;
13335;SDS011;6737;51.480;11.962;2023-05-10T14:55:43;7.50;;;6.10;;
13335;SDS011;6737;51.480;11.962;2023-05-10T14:58:09;5.57;;;5.05;;
13335;SDS011;6737;51.480;11.962;2023-05-10T15:00:35;5.38;;;4.50;;
13335;SDS011;6737;51.480;11.962;2023-05-10T15:03:01;4.97;;;4.30;;
13335;SDS011;6737;51.480;11.962;2023-05-10T15:05:27;4.72;;;4.32;;
13335;SDS011;6737;51.480;11.962;2023-05-10T15:07:52;4.75;;;3.70;;
13335;SDS011;6737;51.480;11.962;2023-05-10T15:10:18;4.32;;;3.92;;
13335;SDS011;6737;51.480;11.962;2023-05-10T15:12:44;4.30;;;3.90;;
13335;SDS011;6737;51.480;11.962;2023-05-10T15:15:10;3.20;;;2.70;;
13335;SDS011;6737;51.480;11.962;2023-05-10T15:17:35;2.75;;;2.50;;